createdAt,value
2022-12-15T00:02:35.881Z,22.57
2022-12-15T00:05:22.574Z,22.70
2022-12-15T00:08:08.543Z,22.87
2022-12-15T00:10:54.527Z,24.90
2022-12-15T00:13:40.687Z,25.03
2022-12-15T00:16:26.576Z,25.43
2022-12-15T00:19:12.516Z,24.30
2022-12-15T00:21:58.255Z,23.93
2022-12-15T00:24:44.080Z,25.30
2022-12-15T00:27:30.034Z,25.20
2022-12-15T00:30:15.928Z,26.00
2022-12-15T00:33:01.991Z,25.30
2022-12-15T00:35:47.938Z,25.67
2022-12-15T00:38:34.053Z,26.63
2022-12-15T00:41:01.809Z,26.90
2022-12-15T00:43:30.686Z,27.47
2022-12-15T00:46:23.276Z,26.83
2022-12-15T00:48:50.722Z,26.63
2022-12-15T00:51:18.457Z,25.30
2022-12-15T00:54:04.995Z,25.63
2022-12-15T00:56:51.203Z,25.53
2022-12-15T00:59:37.277Z,25.50
2022-12-15T01:02:23.014Z,25.10
2022-12-15T01:05:08.706Z,25.27
2022-12-15T01:07:54.663Z,27.70
2022-12-15T01:10:40.684Z,27.87
2022-12-15T01:13:31.905Z,25.70
2022-12-15T01:16:17.856Z,26.57
2022-12-15T01:19:03.722Z,29.27
2022-12-15T01:21:31.823Z,26.53
2022-12-15T01:23:59.014Z,29.33
2022-12-15T01:26:26.212Z,27.83
2022-12-15T01:28:53.367Z,28.20
2022-12-15T01:31:20.606Z,27.53
2022-12-15T01:33:47.868Z,27.23
2022-12-15T01:36:15.056Z,26.17
2022-12-15T01:38:42.862Z,27.50
2022-12-15T01:41:16.654Z,27.47
2022-12-15T01:43:43.838Z,27.50
2022-12-15T01:46:17.658Z,25.50
2022-12-15T01:48:44.891Z,27.53
2022-12-15T01:51:16.842Z,26.60
2022-12-15T01:53:51.173Z,26.37
2022-12-15T01:56:20.930Z,27.20
2022-12-15T01:58:50.167Z,25.67
2022-12-15T02:01:18.062Z,26.90
2022-12-15T02:03:47.612Z,27.57
2022-12-15T02:06:19.196Z,28.00
2022-12-15T02:08:47.887Z,25.60
2022-12-15T02:11:33.459Z,26.60
2022-12-15T02:14:03.630Z,26.10
2022-12-15T02:16:59.873Z,25.97
2022-12-15T02:19:51.870Z,26.13
2022-12-15T02:22:51.523Z,24.93
2022-12-15T02:25:50.648Z,26.97
2022-12-15T02:28:36.672Z,25.00
2022-12-15T02:31:32.136Z,25.33
2022-12-15T02:34:21.643Z,25.80
2022-12-15T02:36:54.211Z,24.57
2022-12-15T02:39:23.067Z,25.47
2022-12-15T02:41:52.871Z,25.57
2022-12-15T02:44:27.069Z,24.60
2022-12-15T02:47:09.924Z,25.20
2022-12-15T02:49:49.948Z,22.63
2022-12-15T02:52:27.765Z,24.30
2022-12-15T02:55:20.731Z,24.07
2022-12-15T02:57:55.886Z,24.77
2022-12-15T03:00:23.048Z,24.23
2022-12-15T03:02:55.322Z,23.37
2022-12-15T03:05:25.022Z,23.80
2022-12-15T03:07:54.276Z,25.33
2022-12-15T03:10:24.466Z,23.90
2022-12-15T03:12:52.531Z,24.70
2022-12-15T03:15:20.191Z,23.97
2022-12-15T03:17:47.508Z,24.77
2022-12-15T03:20:14.784Z,24.50
2022-12-15T03:22:41.950Z,24.13
2022-12-15T03:25:09.251Z,24.57
2022-12-15T03:27:37.732Z,24.77
2022-12-15T03:30:05.887Z,24.80
2022-12-15T03:32:33.087Z,23.43
2022-12-15T03:35:00.996Z,24.90
2022-12-15T03:37:28.572Z,24.77
2022-12-15T03:39:56.240Z,24.40
2022-12-15T03:42:42.116Z,24.37
2022-12-15T03:45:09.575Z,23.57
2022-12-15T03:47:41.739Z,26.33
2022-12-15T03:50:09.656Z,24.53
2022-12-15T03:52:37.113Z,24.30
2022-12-15T03:55:05.245Z,24.30
2022-12-15T03:57:32.435Z,25.10
2022-12-15T04:00:00.145Z,24.67
2022-12-15T04:02:27.552Z,26.50
2022-12-15T04:04:54.902Z,24.10
2022-12-15T04:07:22.054Z,27.33
2022-12-15T04:09:49.212Z,26.90
2022-12-15T04:12:16.385Z,28.03
2022-12-15T04:14:43.534Z,27.47
2022-12-15T04:17:11.263Z,28.13
2022-12-15T04:19:57.251Z,28.30
2022-12-15T04:22:24.656Z,28.73
2022-12-15T04:25:10.555Z,27.27
2022-12-15T04:28:01.342Z,28.90
2022-12-15T04:30:50.010Z,28.80
2022-12-15T04:33:36.461Z,28.80
2022-12-15T04:36:23.050Z,29.00
2022-12-15T04:39:09.090Z,29.83
2022-12-15T04:41:55.127Z,29.10
2022-12-15T04:44:41.113Z,29.53
2022-12-15T04:47:27.144Z,30.83
2022-12-15T04:50:13.091Z,29.80
2022-12-15T04:52:58.935Z,29.40
2022-12-15T04:55:44.920Z,31.03
2022-12-15T04:58:30.820Z,28.97
2022-12-15T05:01:16.889Z,29.30
2022-12-15T05:04:02.899Z,30.87
2022-12-15T05:06:48.719Z,29.07
2022-12-15T05:09:34.762Z,30.83
2022-12-15T05:12:20.667Z,30.67
2022-12-15T05:15:06.542Z,28.77
2022-12-15T05:17:52.434Z,31.20
2022-12-15T05:20:38.279Z,29.53
2022-12-15T05:23:24.160Z,30.93
2022-12-15T05:26:10.104Z,30.30
2022-12-15T05:28:56.034Z,28.50
2022-12-15T05:31:41.806Z,29.03
2022-12-15T05:34:09.181Z,30.97
2022-12-15T05:36:36.334Z,29.43
2022-12-15T05:39:04.006Z,30.70
2022-12-15T05:41:31.195Z,31.23
2022-12-15T05:43:58.370Z,28.93
2022-12-15T05:46:25.819Z,30.53
2022-12-15T05:48:53.067Z,29.80
2022-12-15T05:51:20.463Z,30.63
2022-12-15T05:53:47.711Z,29.90
2022-12-15T05:56:16.035Z,29.13
2022-12-15T05:58:45.374Z,30.10
2022-12-15T06:01:15.847Z,31.20
2022-12-15T06:03:43.338Z,28.80
2022-12-15T06:06:12.359Z,29.27
2022-12-15T06:08:41.829Z,30.27
2022-12-15T06:11:12.700Z,29.30
2022-12-15T06:13:40.510Z,29.93
2022-12-15T06:16:12.066Z,30.27
2022-12-15T06:18:41.830Z,29.67
2022-12-15T06:21:15.826Z,29.43
2022-12-15T06:23:43.279Z,31.27
2022-12-15T06:26:15.753Z,30.67
2022-12-15T06:28:43.111Z,31.17
2022-12-15T06:31:12.013Z,30.60
2022-12-15T06:33:39.559Z,31.10
2022-12-15T06:36:09.781Z,31.43
2022-12-15T06:38:37.341Z,32.03
2022-12-15T06:41:06.511Z,30.73
2022-12-15T06:43:34.842Z,30.87
2022-12-15T06:46:02.969Z,30.33
2022-12-15T06:48:30.785Z,29.33
2022-12-15T06:51:07.978Z,29.27
2022-12-15T06:53:38.918Z,30.47
2022-12-15T06:56:08.580Z,30.30
2022-12-15T06:58:35.723Z,29.83
2022-12-15T07:01:08.978Z,31.47
2022-12-15T07:03:36.875Z,30.07
2022-12-15T07:06:07.625Z,29.67
2022-12-15T07:08:41.115Z,32.50
2022-12-15T07:11:11.503Z,31.23
2022-12-15T07:13:39.753Z,31.83
2022-12-15T07:16:07.808Z,32.40
2022-12-15T07:18:35.110Z,30.80
2022-12-15T07:21:04.377Z,30.50
2022-12-15T07:23:52.823Z,30.07
2022-12-15T07:26:19.219Z,31.53
2022-12-15T07:28:46.390Z,30.43
2022-12-15T07:31:13.622Z,31.00
2022-12-15T07:33:40.822Z,31.87
2022-12-15T07:36:08.493Z,31.50
2022-12-15T07:38:35.831Z,31.23
2022-12-15T07:41:07.746Z,31.13
2022-12-15T07:43:36.003Z,31.17
2022-12-15T07:46:05.017Z,31.77
2022-12-15T07:48:33.238Z,33.37
2022-12-15T07:51:10.978Z,32.03
2022-12-15T07:53:40.042Z,33.43
2022-12-15T07:56:09.322Z,31.30
2022-12-15T07:58:37.980Z,30.27
2022-12-15T08:01:07.910Z,31.27
2022-12-15T08:03:36.684Z,30.93
2022-12-15T08:06:05.592Z,30.87
2022-12-15T08:08:34.098Z,31.03
2022-12-15T08:11:10.003Z,31.60
2022-12-15T08:16:25.820Z,31.87
2022-12-15T08:18:53.723Z,33.00
2022-12-15T08:21:20.949Z,31.63
2022-12-15T08:23:48.262Z,30.43
2022-12-15T08:26:17.932Z,32.03
2022-12-15T08:28:45.707Z,30.73
2022-12-15T08:31:19.488Z,34.40
2022-12-15T08:33:47.164Z,31.23
2022-12-15T08:36:17.691Z,32.93
2022-12-15T08:38:45.933Z,33.77
2022-12-15T08:41:21.130Z,33.50
2022-12-15T08:43:49.643Z,32.93
2022-12-15T08:46:19.943Z,32.17
2022-12-15T08:48:47.587Z,32.13
2022-12-15T08:51:15.922Z,33.33
2022-12-15T08:53:43.556Z,31.87
2022-12-15T08:56:13.447Z,32.40
2022-12-15T08:58:40.832Z,32.23
2022-12-15T09:01:22.997Z,31.03
2022-12-15T09:03:55.803Z,32.60
2022-12-15T09:06:24.594Z,31.80
2022-12-15T09:08:56.392Z,34.83
2022-12-15T09:11:25.150Z,32.77
2022-12-15T09:13:52.419Z,33.33
2022-12-15T09:16:21.222Z,33.77
2022-12-15T09:18:51.642Z,31.67
2022-12-15T09:21:23.798Z,33.43
2022-12-15T09:23:52.261Z,31.40
2022-12-15T09:26:21.850Z,31.73
2022-12-15T09:28:51.051Z,32.80
2022-12-15T09:31:28.507Z,33.63
2022-12-15T09:33:58.024Z,32.03
2022-12-15T09:36:26.377Z,33.03
2022-12-15T09:38:53.707Z,31.80
2022-12-15T09:41:27.135Z,33.93
2022-12-15T09:44:03.175Z,32.97
2022-12-15T09:46:51.627Z,33.03
2022-12-15T09:49:44.149Z,34.10
2022-12-15T09:52:17.997Z,32.93
2022-12-15T09:54:46.214Z,34.20
2022-12-15T09:57:31.865Z,34.03
2022-12-15T10:00:09.994Z,35.63
2022-12-15T10:03:04.703Z,34.63
2022-12-15T10:06:15.455Z,34.20
2022-12-15T10:08:59.951Z,32.33
2022-12-15T10:11:48.532Z,33.30
2022-12-15T10:14:41.305Z,33.57
2022-12-15T10:17:26.043Z,34.80
2022-12-15T10:20:26.255Z,34.43
2022-12-15T10:22:56.855Z,34.90
2022-12-15T10:25:30.399Z,34.57
2022-12-15T10:28:35.889Z,36.67
2022-12-15T10:31:25.645Z,36.33
2022-12-15T10:33:59.811Z,36.33
2022-12-15T10:36:27.289Z,35.23
2022-12-15T10:38:54.667Z,37.10
2022-12-15T10:41:28.479Z,35.40
2022-12-15T10:43:57.329Z,36.30
2022-12-15T10:46:27.293Z,36.37
2022-12-15T10:48:57.274Z,36.23
2022-12-15T10:51:31.425Z,37.27
2022-12-15T10:54:10.597Z,36.30
2022-12-15T10:56:50.255Z,36.23
2022-12-15T10:59:25.469Z,34.93
2022-12-15T11:01:53.060Z,34.87
2022-12-15T11:04:33.790Z,34.57
2022-12-15T11:07:04.175Z,34.87
2022-12-15T11:09:39.297Z,34.30
2022-12-15T11:12:39.684Z,35.53
2022-12-15T11:15:21.910Z,34.60
2022-12-15T11:18:21.131Z,35.70
2022-12-15T11:21:00.679Z,33.83
2022-12-15T11:23:37.515Z,36.23
2022-12-15T11:26:14.131Z,35.73
2022-12-15T11:28:58.962Z,36.37
2022-12-15T11:31:38.252Z,36.03
2022-12-15T11:34:12.905Z,35.60
2022-12-15T11:36:58.972Z,35.83
2022-12-15T11:39:38.124Z,33.47
2022-12-15T11:42:30.662Z,34.60
2022-12-15T11:45:23.716Z,37.03
2022-12-15T11:47:59.484Z,34.87
2022-12-15T11:50:32.221Z,32.23
2022-12-15T11:53:41.930Z,34.37
2022-12-15T11:56:33.771Z,35.67
2022-12-15T11:59:00.907Z,34.27
2022-12-15T12:02:00.765Z,34.90
2022-12-15T12:05:02.907Z,34.30
2022-12-15T12:07:49.109Z,35.57
2022-12-15T12:10:47.687Z,35.77
2022-12-15T12:13:33.795Z,36.43
2022-12-15T12:16:28.849Z,37.03
2022-12-15T12:19:04.454Z,37.00
2022-12-15T12:21:36.850Z,38.73
2022-12-15T12:24:23.546Z,39.33
2022-12-15T12:27:00.635Z,35.17
2022-12-15T12:29:36.460Z,39.70
2022-12-15T12:32:13.014Z,40.00
2022-12-15T12:35:30.627Z,36.13
2022-12-15T12:38:04.723Z,37.20
2022-12-15T12:40:41.124Z,36.30
2022-12-15T12:43:14.211Z,36.50
2022-12-15T12:45:50.512Z,37.10
2022-12-15T12:48:29.672Z,35.93
2022-12-15T12:51:23.783Z,36.93
2022-12-15T12:53:51.371Z,37.70
2022-12-15T12:56:43.529Z,38.80
2022-12-15T12:59:28.840Z,38.20
2022-12-15T13:02:21.736Z,38.07
2022-12-15T13:05:00.400Z,36.30
2022-12-15T13:07:32.923Z,38.90
2022-12-15T13:10:09.887Z,39.60
2022-12-15T13:12:51.871Z,40.70
2022-12-15T13:15:25.020Z,38.23
2022-12-15T13:17:56.942Z,37.80
2022-12-15T13:20:26.941Z,38.83
2022-12-15T13:22:55.268Z,41.03
2022-12-15T13:25:38.289Z,41.03
2022-12-15T13:28:20.351Z,38.47
2022-12-15T13:31:18.920Z,38.30
2022-12-15T13:33:49.179Z,38.07
2022-12-15T13:36:41.621Z,37.10
2022-12-15T13:39:14.406Z,37.43
2022-12-15T13:44:57.241Z,38.03
2022-12-15T13:47:29.915Z,39.13
2022-12-15T13:50:03.051Z,36.70
2022-12-15T13:53:17.812Z,39.07
2022-12-15T13:55:46.148Z,37.53
2022-12-15T13:58:20.650Z,37.17
2022-12-15T14:00:54.183Z,39.37
2022-12-15T14:03:21.836Z,38.63
2022-12-15T14:05:55.554Z,39.00
2022-12-15T14:08:25.750Z,36.83
2022-12-15T14:10:55.440Z,38.90
2022-12-15T14:13:40.620Z,36.73
2022-12-15T14:16:19.190Z,36.93
2022-12-15T14:19:05.055Z,37.47
2022-12-15T14:21:32.305Z,37.80
2022-12-15T14:26:47.968Z,37.27
2022-12-15T14:29:17.774Z,38.40
2022-12-15T14:31:51.449Z,37.27
2022-12-15T14:34:32.859Z,38.70
2022-12-15T14:37:03.773Z,37.93
2022-12-15T14:39:44.919Z,37.90
2022-12-15T14:42:22.174Z,38.43
2022-12-15T14:44:51.327Z,37.50
2022-12-15T14:47:21.437Z,38.00
2022-12-15T14:49:49.024Z,39.20
2022-12-15T14:52:29.691Z,39.30
2022-12-15T14:55:00.209Z,38.17
2022-12-15T14:57:45.535Z,37.57
2022-12-15T15:00:32.081Z,36.00
2022-12-15T15:03:18.273Z,36.23
2022-12-15T15:05:51.422Z,35.47
2022-12-15T15:08:34.681Z,36.50
2022-12-15T15:11:19.415Z,36.93
2022-12-15T15:13:47.030Z,37.57
2022-12-15T15:16:17.257Z,37.67
2022-12-15T15:18:48.600Z,37.50
2022-12-15T15:21:20.831Z,37.43
2022-12-15T15:24:09.699Z,38.27
2022-12-15T15:26:38.021Z,39.90
2022-12-15T15:29:30.839Z,37.67
2022-12-15T15:32:19.188Z,38.17
2022-12-15T15:34:47.248Z,40.00
2022-12-15T15:37:25.062Z,41.77
2022-12-15T15:39:54.328Z,39.10
2022-12-15T15:42:25.475Z,37.70
2022-12-15T15:44:57.574Z,38.07
2022-12-15T15:47:25.947Z,38.47
2022-12-15T15:49:55.478Z,38.13
2022-12-15T15:52:23.250Z,38.90
2022-12-15T15:54:51.705Z,40.73
2022-12-15T15:57:19.046Z,40.63
2022-12-15T15:59:46.909Z,39.37
2022-12-15T16:02:14.993Z,39.13
2022-12-15T16:04:43.724Z,39.50
2022-12-15T16:07:28.585Z,39.13
2022-12-15T16:09:56.738Z,39.17
2022-12-15T16:12:35.901Z,38.90
2022-12-15T16:15:06.043Z,40.10
2022-12-15T16:17:33.346Z,42.10
2022-12-15T16:20:00.505Z,40.93
2022-12-15T16:22:27.866Z,41.13
2022-12-15T16:24:56.303Z,42.43
2022-12-15T16:27:23.509Z,41.20
2022-12-15T16:29:50.661Z,42.43
2022-12-15T16:32:17.883Z,43.07
2022-12-15T16:34:45.055Z,40.90
2022-12-15T16:37:39.202Z,42.63
2022-12-15T16:40:30.034Z,42.37
2022-12-15T16:43:01.778Z,43.53
2022-12-15T16:45:31.133Z,43.50
2022-12-15T16:47:58.478Z,45.67
2022-12-15T16:50:31.450Z,41.40
2022-12-15T16:52:59.219Z,43.60
2022-12-15T16:55:35.075Z,46.00
2022-12-15T16:58:06.791Z,44.57
2022-12-15T17:00:35.612Z,50.43
2022-12-15T17:03:03.379Z,43.13
2022-12-15T17:05:36.101Z,42.30
2022-12-15T17:08:07.004Z,42.33
2022-12-15T17:10:34.327Z,41.03
2022-12-15T17:13:39.132Z,41.63
2022-12-15T17:16:13.473Z,41.57
2022-12-15T17:18:40.787Z,40.20
2022-12-15T17:21:18.524Z,40.80
2022-12-15T17:23:49.317Z,41.00
2022-12-15T17:26:29.092Z,41.33
2022-12-15T17:29:00.996Z,41.77
2022-12-15T17:31:34.771Z,38.87
2022-12-15T17:34:30.535Z,40.23
2022-12-15T17:36:59.695Z,42.40
2022-12-15T17:39:28.023Z,41.30
2022-12-15T17:42:00.479Z,42.00
2022-12-15T17:44:37.966Z,41.00
2022-12-15T17:47:08.128Z,42.23
2022-12-15T17:49:38.308Z,42.30
2022-12-15T17:52:14.634Z,43.33
2022-12-15T17:54:41.885Z,43.33
2022-12-15T17:57:12.250Z,43.03
2022-12-15T17:59:39.402Z,48.07
2022-12-15T18:02:08.401Z,47.30
2022-12-15T18:04:35.765Z,47.20
2022-12-15T18:07:02.986Z,45.47
2022-12-15T18:09:30.424Z,44.53
2022-12-15T18:11:57.873Z,44.37
2022-12-15T18:14:25.174Z,44.93
2022-12-15T18:16:52.520Z,50.47
2022-12-15T18:19:20.130Z,47.77
2022-12-15T18:21:47.403Z,46.50
2022-12-15T18:24:21.345Z,47.23
2022-12-15T18:26:48.885Z,47.63
2022-12-15T18:29:17.981Z,47.43
2022-12-15T18:31:49.283Z,49.33
2022-12-15T18:34:21.086Z,49.20
2022-12-15T18:36:48.714Z,49.23
2022-12-15T18:39:23.490Z,51.47
2022-12-15T18:41:52.403Z,52.67
2022-12-15T18:44:25.213Z,52.57
2022-12-15T18:46:55.140Z,49.53
2022-12-15T18:49:23.863Z,48.10
2022-12-15T18:51:51.091Z,47.83
2022-12-15T18:54:20.787Z,47.60
2022-12-15T18:56:48.703Z,48.17
2022-12-15T18:59:17.955Z,46.67
2022-12-15T19:01:49.251Z,45.20
2022-12-15T19:04:16.485Z,44.33
2022-12-15T19:06:44.871Z,48.57
2022-12-15T19:09:19.035Z,48.37
2022-12-15T19:12:06.818Z,50.13
2022-12-15T19:14:40.087Z,46.70
2022-12-15T19:17:29.304Z,48.30
2022-12-15T19:20:15.483Z,49.10
2022-12-15T19:22:44.180Z,50.03
2022-12-15T19:25:24.785Z,46.07
2022-12-15T19:27:59.171Z,45.90
2022-12-15T19:30:40.135Z,44.70
2022-12-15T19:33:10.590Z,47.87
2022-12-15T19:35:39.061Z,45.53
2022-12-15T19:38:07.332Z,46.70
2022-12-15T19:40:35.931Z,44.30
2022-12-15T19:43:04.219Z,45.63
2022-12-15T19:45:32.908Z,41.87
2022-12-15T19:48:00.344Z,42.50
2022-12-15T19:50:36.807Z,43.30
2022-12-15T19:53:24.113Z,41.77
2022-12-15T19:55:56.926Z,42.73
2022-12-15T19:58:35.878Z,41.60
2022-12-15T20:01:07.180Z,39.70
2022-12-15T20:03:35.803Z,40.30
2022-12-15T20:06:06.519Z,39.70
2022-12-15T20:08:35.596Z,36.97
2022-12-15T20:11:03.503Z,37.93
2022-12-15T20:13:31.146Z,37.10
2022-12-15T20:15:58.674Z,37.00
2022-12-15T20:18:25.840Z,36.37
2022-12-15T20:20:53.377Z,36.53
2022-12-15T20:23:29.282Z,37.03
2022-12-15T20:25:57.357Z,38.07
2022-12-15T20:28:29.714Z,33.70
2022-12-15T20:30:58.158Z,35.27
2022-12-15T20:33:25.456Z,35.97
2022-12-15T20:35:53.401Z,35.70
2022-12-15T20:38:32.364Z,36.77
2022-12-15T20:41:01.536Z,34.53
2022-12-15T20:43:31.685Z,33.37
2022-12-15T20:46:05.897Z,37.33
2022-12-15T20:48:35.070Z,34.07
2022-12-15T20:51:07.551Z,33.67
2022-12-15T20:53:37.726Z,31.00
2022-12-15T20:56:06.081Z,29.27
2022-12-15T20:58:40.892Z,29.30
2022-12-15T21:01:20.868Z,28.40
2022-12-15T21:03:50.424Z,28.33
2022-12-15T21:06:19.447Z,26.97
2022-12-15T21:08:46.739Z,27.70
2022-12-15T21:11:20.314Z,30.23
2022-12-15T21:13:49.192Z,31.23
2022-12-15T21:16:21.493Z,29.23
2022-12-15T21:21:40.690Z,25.47
2022-12-15T21:24:19.526Z,24.33
2022-12-15T21:26:46.951Z,23.77
2022-12-15T21:29:20.504Z,25.10
2022-12-15T21:31:48.339Z,22.57
2022-12-15T21:34:15.635Z,23.53
2022-12-15T21:36:45.430Z,22.33
2022-12-15T21:39:21.758Z,22.40
2022-12-15T21:41:49.077Z,22.03
2022-12-15T21:44:18.279Z,23.20
2022-12-15T21:46:45.656Z,23.13
2022-12-15T21:49:18.466Z,23.43
2022-12-15T21:51:49.466Z,24.23
2022-12-15T21:54:27.415Z,27.03
2022-12-15T21:57:01.191Z,28.63
2022-12-15T21:59:31.176Z,25.03
2022-12-15T22:02:00.816Z,22.90
2022-12-15T22:04:37.205Z,24.10
2022-12-15T22:07:06.257Z,23.30
2022-12-15T22:09:33.558Z,22.07
2022-12-15T22:12:01.222Z,20.67
2022-12-15T22:14:31.618Z,21.73
2022-12-15T22:17:00.106Z,22.73
2022-12-15T22:19:27.645Z,21.27
2022-12-15T22:21:54.835Z,21.67
2022-12-15T22:24:22.278Z,22.37
2022-12-15T22:26:49.590Z,22.23
2022-12-15T22:29:20.280Z,21.37
2022-12-15T22:31:49.438Z,21.70
2022-12-15T22:34:19.556Z,21.40
2022-12-15T22:36:46.983Z,21.37
2022-12-15T22:39:14.866Z,22.13
2022-12-15T22:41:45.113Z,20.83
2022-12-15T22:44:25.608Z,19.83
2022-12-15T22:46:55.680Z,20.27
2022-12-15T22:49:29.207Z,20.40
2022-12-15T22:51:56.422Z,19.87
2022-12-15T22:54:25.980Z,19.47
2022-12-15T22:57:03.828Z,20.73
2022-12-15T22:59:41.360Z,19.83
2022-12-15T23:02:09.079Z,19.70
2022-12-15T23:04:36.550Z,18.33
2022-12-15T23:07:07.350Z,19.10
2022-12-15T23:09:34.526Z,18.27
2022-12-15T23:12:01.824Z,18.40
2022-12-15T23:14:47.722Z,18.60
2022-12-15T23:17:14.894Z,19.03
2022-12-15T23:19:45.889Z,19.30
2022-12-15T23:22:13.717Z,18.67
2022-12-15T23:24:41.237Z,19.33
2022-12-15T23:27:11.991Z,18.30
2022-12-15T23:29:39.252Z,17.47
2022-12-15T23:32:06.430Z,18.90
2022-12-15T23:34:33.635Z,17.63
2022-12-15T23:37:00.826Z,18.57
2022-12-15T23:39:28.206Z,18.93
2022-12-15T23:41:55.424Z,18.60
2022-12-15T23:44:22.852Z,17.30
2022-12-15T23:46:50.044Z,16.73
2022-12-15T23:49:17.499Z,17.33
2022-12-15T23:51:44.670Z,17.10
2022-12-15T23:54:11.854Z,17.23
2022-12-15T23:56:40.113Z,17.07
2022-12-15T23:59:07.533Z,16.87
